sensor_id;sensor_type;location;lat;lon;timestamp;pressure;altitude;pressure_sealevel;temperature;humidity
1401;BME280;46518;48.842;8.926;2023-02-03T00:00:36;98379.94;;;5.32;95.70
1401;BME280;46518;48.842;8.926;2023-02-03T00:03:05;98386.03;;;5.39;95.28
1401;BME280;46518;48.842;8.926;2023-02-03T00:05:34;98386.13;;;5.46;95.62
1401;BME280;46518;48.842;8.926;2023-02-03T00:08:03;98359.94;;;5.39;95.04
1401;BME280;46518;48.842;8.926;2023-02-03T00:10:35;98365.53;;;5.36;95.64
1401;BME280;46518;48.842;8.926;2023-02-03T00:13:03;98369.28;;;5.48;95.75
1401;BME280;46518;48.842;8.926;2023-02-03T00:15:32;98371.47;;;5.45;96.01
1401;BME280;46518;48.842;8.926;2023-02-03T00:18:00;98362.53;;;5.39;96.12
1401;BME280;46518;48.842;8.926;2023-02-03T00:20:28;98371.09;;;5.48;95.52
1401;BME280;46518;48.842;8.926;2023-02-03T00:23:02;98371.53;;;5.36;96.56
1401;BME280;46518;48.842;8.926;2023-02-03T00:25:31;98363.91;;;5.50;96.97
1401;BME280;46518;48.842;8.926;2023-02-03T00:28:00;98353.47;;;5.35;96.30
1401;BME280;46518;48.842;8.926;2023-02-03T00:30:29;98357.63;;;5.29;97.18
1401;BME280;46518;48.842;8.926;2023-02-03T00:32:57;98376.50;;;5.46;96.71
1401;BME280;46518;48.842;8.926;2023-02-03T00:35:25;98356.06;;;5.35;96.68
1401;BME280;46518;48.842;8.926;2023-02-03T00:37:54;98366.78;;;5.40;97.51
1401;BME280;46518;48.842;8.926;2023-02-03T00:40:24;98377.59;;;5.37;97.47
1401;BME280;46518;48.842;8.926;2023-02-03T00:42:54;98395.66;;;5.38;97.17
1401;BME280;46518;48.842;8.926;2023-02-03T00:45:23;98373.63;;;5.41;96.47
1401;BME280;46518;48.842;8.926;2023-02-03T00:47:51;98372.97;;;5.39;96.94
1401;BME280;46518;48.842;8.926;2023-02-03T00:50:19;98369.84;;;5.29;97.86
1401;BME280;46518;48.842;8.926;2023-02-03T00:52:48;98379.66;;;5.27;97.56
1401;BME280;46518;48.842;8.926;2023-02-03T00:55:16;98355.28;;;5.19;97.63
1401;BME280;46518;48.842;8.926;2023-02-03T00:57:46;98382.09;;;5.28;97.66
1401;BME280;46518;48.842;8.926;2023-02-03T01:02:44;98376.69;;;5.30;98.02
1401;BME280;46518;48.842;8.926;2023-02-03T01:05:13;98371.09;;;5.33;98.06
1401;BME280;46518;48.842;8.926;2023-02-03T01:07:41;98375.06;;;5.29;97.37
1401;BME280;46518;48.842;8.926;2023-02-03T01:10:10;98367.31;;;5.21;97.57
1401;BME280;46518;48.842;8.926;2023-02-03T01:12:40;98374.72;;;5.32;97.35
1401;BME280;46518;48.842;8.926;2023-02-03T01:15:09;98372.09;;;5.32;97.91
1401;BME280;46518;48.842;8.926;2023-02-03T01:17:37;98357.88;;;5.34;97.01
1401;BME280;46518;48.842;8.926;2023-02-03T01:20:08;98351.03;;;5.33;97.46
1401;BME280;46518;48.842;8.926;2023-02-03T01:22:38;98351.84;;;5.34;97.11
1401;BME280;46518;48.842;8.926;2023-02-03T01:25:07;98350.59;;;5.30;97.01
1401;BME280;46518;48.842;8.926;2023-02-03T01:27:36;98359.50;;;5.35;97.54
1401;BME280;46518;48.842;8.926;2023-02-03T01:30:05;98356.44;;;5.32;97.42
1401;BME280;46518;48.842;8.926;2023-02-03T01:32:33;98326.47;;;5.28;96.73
1401;BME280;46518;48.842;8.926;2023-02-03T01:35:03;98326.03;;;5.24;97.39
1401;BME280;46518;48.842;8.926;2023-02-03T01:37:33;98320.81;;;5.24;97.01
1401;BME280;46518;48.842;8.926;2023-02-03T01:40:01;98340.41;;;5.35;97.22
1401;BME280;46518;48.842;8.926;2023-02-03T01:42:32;98356.78;;;5.44;97.07
1401;BME280;46518;48.842;8.926;2023-02-03T01:45:00;98350.66;;;5.36;97.18
1401;BME280;46518;48.842;8.926;2023-02-03T01:47:32;98344.25;;;5.39;97.28
1401;BME280;46518;48.842;8.926;2023-02-03T01:50:07;98354.38;;;5.42;96.31
1401;BME280;46518;48.842;8.926;2023-02-03T01:52:41;98372.19;;;5.38;96.62
1401;BME280;46518;48.842;8.926;2023-02-03T01:55:13;98364.19;;;5.40;96.93
1401;BME280;46518;48.842;8.926;2023-02-03T01:57:46;98357.16;;;5.40;96.31
1401;BME280;46518;48.842;8.926;2023-02-03T02:00:18;98355.16;;;5.43;96.17
1401;BME280;46518;48.842;8.926;2023-02-03T02:02:49;98354.91;;;5.52;95.38
1401;BME280;46518;48.842;8.926;2023-02-03T02:05:22;98320.75;;;5.39;95.78
1401;BME280;46518;48.842;8.926;2023-02-03T02:07:55;98324.13;;;5.33;95.11
1401;BME280;46518;48.842;8.926;2023-02-03T02:10:26;98290.56;;;5.30;95.94
1401;BME280;46518;48.842;8.926;2023-02-03T02:12:56;98293.47;;;5.41;95.91
1401;BME280;46518;48.842;8.926;2023-02-03T02:15:31;98276.03;;;5.42;95.45
1401;BME280;46518;48.842;8.926;2023-02-03T02:18:15;98279.00;;;5.39;96.88
1401;BME280;46518;48.842;8.926;2023-02-03T02:21:11;98279.63;;;5.41;95.99
1401;BME280;46518;48.842;8.926;2023-02-03T02:26:50;98305.38;;;5.44;96.21
1401;BME280;46518;48.842;8.926;2023-02-03T02:29:45;98295.03;;;5.36;96.83
1401;BME280;46518;48.842;8.926;2023-02-03T02:32:28;98291.72;;;5.42;97.25
1401;BME280;46518;48.842;8.926;2023-02-03T02:35:05;98285.09;;;5.46;96.24
1401;BME280;46518;48.842;8.926;2023-02-03T02:37:43;98263.00;;;5.42;96.41
1401;BME280;46518;48.842;8.926;2023-02-03T02:40:22;98269.19;;;5.41;96.09
1401;BME280;46518;48.842;8.926;2023-02-03T02:43:00;98253.34;;;5.43;96.06
1401;BME280;46518;48.842;8.926;2023-02-03T02:45:36;98224.75;;;5.34;95.03
1401;BME280;46518;48.842;8.926;2023-02-03T02:48:13;98242.94;;;5.28;95.53
1401;BME280;46518;48.842;8.926;2023-02-03T02:50:47;98283.63;;;5.37;95.80
1401;BME280;46518;48.842;8.926;2023-02-03T02:53:18;98276.72;;;5.51;95.20
1401;BME280;46518;48.842;8.926;2023-02-03T02:55:51;98287.09;;;5.44;95.80
1401;BME280;46518;48.842;8.926;2023-02-03T02:58:20;98279.47;;;5.28;95.89
1401;BME280;46518;48.842;8.926;2023-02-03T03:00:49;98292.59;;;5.49;95.61
1401;BME280;46518;48.842;8.926;2023-02-03T03:03:20;98286.19;;;5.52;95.29
1401;BME280;46518;48.842;8.926;2023-02-03T03:05:51;98260.88;;;5.52;94.73
1401;BME280;46518;48.842;8.926;2023-02-03T03:08:30;98261.53;;;5.54;94.70
1401;BME280;46518;48.842;8.926;2023-02-03T03:11:00;98256.69;;;5.36;95.34
1401;BME280;46518;48.842;8.926;2023-02-03T03:13:32;98254.06;;;5.36;95.30
1401;BME280;46518;48.842;8.926;2023-02-03T03:16:04;98255.16;;;5.42;95.02
1401;BME280;46518;48.842;8.926;2023-02-03T03:18:39;98251.72;;;5.41;94.63
1401;BME280;46518;48.842;8.926;2023-02-03T03:21:14;98249.81;;;5.50;94.15
1401;BME280;46518;48.842;8.926;2023-02-03T03:23:46;98237.81;;;5.34;94.53
1401;BME280;46518;48.842;8.926;2023-02-03T03:26:21;98243.53;;;5.45;93.95
1401;BME280;46518;48.842;8.926;2023-02-03T03:28:57;98270.53;;;5.52;93.64
1401;BME280;46518;48.842;8.926;2023-02-03T03:31:27;98268.91;;;5.51;94.03
1401;BME280;46518;48.842;8.926;2023-02-03T03:33:57;98269.91;;;5.50;93.52
1401;BME280;46518;48.842;8.926;2023-02-03T03:36:29;98295.78;;;5.66;92.64
1401;BME280;46518;48.842;8.926;2023-02-03T03:39:02;98288.56;;;5.68;92.60
1401;BME280;46518;48.842;8.926;2023-02-03T03:41:39;98277.44;;;5.59;92.02
1401;BME280;46518;48.842;8.926;2023-02-03T03:44:11;98290.94;;;5.63;93.09
1401;BME280;46518;48.842;8.926;2023-02-03T03:46:45;98302.69;;;5.74;92.44
1401;BME280;46518;48.842;8.926;2023-02-03T03:49:18;98311.44;;;5.66;92.81
1401;BME280;46518;48.842;8.926;2023-02-03T03:51:50;98291.84;;;5.55;92.66
1401;BME280;46518;48.842;8.926;2023-02-03T03:54:23;98300.06;;;5.52;92.76
1401;BME280;46518;48.842;8.926;2023-02-03T03:56:56;98324.34;;;5.68;92.68
1401;BME280;46518;48.842;8.926;2023-02-03T03:59:29;98332.31;;;5.81;92.13
1401;BME280;46518;48.842;8.926;2023-02-03T04:01:59;98347.34;;;5.79;92.32
1401;BME280;46518;48.842;8.926;2023-02-03T04:04:34;98342.84;;;5.88;91.52
1401;BME280;46518;48.842;8.926;2023-02-03T04:07:03;98333.66;;;5.92;91.78
1401;BME280;46518;48.842;8.926;2023-02-03T04:09:31;98340.16;;;5.81;92.63
1401;BME280;46518;48.842;8.926;2023-02-03T04:12:03;98338.66;;;5.72;94.13
1401;BME280;46518;48.842;8.926;2023-02-03T04:14:33;98343.25;;;5.70;96.38
1401;BME280;46518;48.842;8.926;2023-02-03T04:17:02;98348.78;;;5.45;98.65
1401;BME280;46518;48.842;8.926;2023-02-03T04:19:32;98355.59;;;5.46;100.00
1401;BME280;46518;48.842;8.926;2023-02-03T04:22:00;98352.91;;;5.54;100.00
1401;BME280;46518;48.842;8.926;2023-02-03T04:24:29;98338.16;;;5.32;100.00
1401;BME280;46518;48.842;8.926;2023-02-03T04:26:57;98348.13;;;5.43;100.00
1401;BME280;46518;48.842;8.926;2023-02-03T04:29:25;98334.03;;;5.37;100.00
1401;BME280;46518;48.842;8.926;2023-02-03T04:31:53;98335.28;;;5.27;100.00
1401;BME280;46518;48.842;8.926;2023-02-03T04:34:22;98329.72;;;5.30;100.00
1401;BME280;46518;48.842;8.926;2023-02-03T04:36:51;98302.25;;;5.19;100.00
1401;BME280;46518;48.842;8.926;2023-02-03T04:39:20;98305.69;;;5.19;100.00
1401;BME280;46518;48.842;8.926;2023-02-03T04:41:48;98316.56;;;5.23;100.00
1401;BME280;46518;48.842;8.926;2023-02-03T04:44:16;98289.41;;;5.17;100.00
1401;BME280;46518;48.842;8.926;2023-02-03T04:46:45;98301.69;;;5.24;100.00
1401;BME280;46518;48.842;8.926;2023-02-03T04:49:13;98306.28;;;5.22;100.00
1401;BME280;46518;48.842;8.926;2023-02-03T04:51:41;98296.22;;;5.18;100.00
1401;BME280;46518;48.842;8.926;2023-02-03T04:54:11;98323.56;;;5.37;100.00
1401;BME280;46518;48.842;8.926;2023-02-03T04:56:39;98303.06;;;5.19;100.00
1401;BME280;46518;48.842;8.926;2023-02-03T04:59:07;98304.59;;;5.14;100.00
1401;BME280;46518;48.842;8.926;2023-02-03T05:01:36;98291.09;;;5.10;100.00
1401;BME280;46518;48.842;8.926;2023-02-03T05:04:04;98311.50;;;5.22;100.00
1401;BME280;46518;48.842;8.926;2023-02-03T05:06:32;98295.69;;;5.08;100.00
1401;BME280;46518;48.842;8.926;2023-02-03T05:09:00;98305.59;;;5.13;100.00
1401;BME280;46518;48.842;8.926;2023-02-03T05:11:30;98323.13;;;5.19;100.00
1401;BME280;46518;48.842;8.926;2023-02-03T05:13:58;98325.47;;;5.14;100.00
1401;BME280;46518;48.842;8.926;2023-02-03T05:16:26;98308.94;;;5.07;100.00
1401;BME280;46518;48.842;8.926;2023-02-03T05:18:55;98322.31;;;5.18;100.00
1401;BME280;46518;48.842;8.926;2023-02-03T05:21:23;98339.69;;;5.26;100.00
1401;BME280;46518;48.842;8.926;2023-02-03T05:23:51;98325.41;;;5.07;100.00
1401;BME280;46518;48.842;8.926;2023-02-03T05:26:19;98322.69;;;5.15;100.00
1401;BME280;46518;48.842;8.926;2023-02-03T05:28:49;98333.66;;;5.26;100.00
1401;BME280;46518;48.842;8.926;2023-02-03T05:31:19;98324.84;;;5.27;100.00
1401;BME280;46518;48.842;8.926;2023-02-03T05:33:47;98323.94;;;5.34;100.00
1401;BME280;46518;48.842;8.926;2023-02-03T05:36:15;98331.31;;;5.31;100.00
1401;BME280;46518;48.842;8.926;2023-02-03T05:38:43;98328.44;;;5.26;100.00
1401;BME280;46518;48.842;8.926;2023-02-03T05:41:12;98342.47;;;5.39;100.00
1401;BME280;46518;48.842;8.926;2023-02-03T05:43:59;98331.94;;;5.33;100.00
1401;BME280;46518;48.842;8.926;2023-02-03T05:46:27;98330.88;;;5.42;100.00
1401;BME280;46518;48.842;8.926;2023-02-03T05:48:55;98346.53;;;5.42;100.00
1401;BME280;46518;48.842;8.926;2023-02-03T05:51:23;98330.50;;;5.45;100.00
1401;BME280;46518;48.842;8.926;2023-02-03T05:53:52;98298.53;;;5.43;100.00
1401;BME280;46518;48.842;8.926;2023-02-03T05:56:20;98311.56;;;5.58;100.00
1401;BME280;46518;48.842;8.926;2023-02-03T05:58:48;98298.16;;;5.46;99.82
1401;BME280;46518;48.842;8.926;2023-02-03T06:01:20;98316.34;;;5.54;99.25
1401;BME280;46518;48.842;8.926;2023-02-03T06:03:48;98304.75;;;5.42;99.24
1401;BME280;46518;48.842;8.926;2023-02-03T06:06:17;98297.53;;;5.44;98.70
1401;BME280;46518;48.842;8.926;2023-02-03T06:08:45;98292.63;;;5.34;98.77
1401;BME280;46518;48.842;8.926;2023-02-03T06:11:13;98321.38;;;5.56;98.38
1401;BME280;46518;48.842;8.926;2023-02-03T06:13:42;98308.69;;;5.53;97.92
1401;BME280;46518;48.842;8.926;2023-02-03T06:16:10;98281.66;;;5.60;97.67
1401;BME280;46518;48.842;8.926;2023-02-03T06:18:40;98294.47;;;5.55;97.17
1401;BME280;46518;48.842;8.926;2023-02-03T06:21:08;98291.22;;;5.53;97.73
1401;BME280;46518;48.842;8.926;2023-02-03T06:23:37;98282.16;;;5.49;97.44
1401;BME280;46518;48.842;8.926;2023-02-03T06:26:05;98293.38;;;5.65;97.41
1401;BME280;46518;48.842;8.926;2023-02-03T06:28:33;98301.19;;;5.65;96.91
1401;BME280;46518;48.842;8.926;2023-02-03T06:31:04;98299.13;;;5.60;97.13
1401;BME280;46518;48.842;8.926;2023-02-03T06:33:33;98307.94;;;5.59;98.54
1401;BME280;46518;48.842;8.926;2023-02-03T06:36:03;98308.16;;;5.57;98.26
1401;BME280;46518;48.842;8.926;2023-02-03T06:38:31;98326.59;;;5.56;99.79
1401;BME280;46518;48.842;8.926;2023-02-03T06:40:59;98302.41;;;5.47;100.00
1401;BME280;46518;48.842;8.926;2023-02-03T06:43:28;98319.94;;;5.53;100.00
1401;BME280;46518;48.842;8.926;2023-02-03T06:45:56;98291.06;;;5.40;100.00
1401;BME280;46518;48.842;8.926;2023-02-03T06:48:24;98296.94;;;5.42;100.00
1401;BME280;46518;48.842;8.926;2023-02-03T06:50:52;98302.16;;;5.42;100.00
1401;BME280;46518;48.842;8.926;2023-02-03T06:53:22;98279.75;;;5.33;100.00
1401;BME280;46518;48.842;8.926;2023-02-03T06:55:51;98295.28;;;5.41;100.00
1401;BME280;46518;48.842;8.926;2023-02-03T06:58:19;98292.41;;;5.51;100.00
1401;BME280;46518;48.842;8.926;2023-02-03T07:00:47;98301.59;;;5.47;100.00
1401;BME280;46518;48.842;8.926;2023-02-03T07:03:16;98301.63;;;5.32;100.00
1401;BME280;46518;48.842;8.926;2023-02-03T07:05:45;98294.34;;;5.27;100.00
1401;BME280;46518;48.842;8.926;2023-02-03T07:08:13;98299.81;;;5.32;100.00
1401;BME280;46518;48.842;8.926;2023-02-03T07:10:43;98289.91;;;5.28;100.00
1401;BME280;46518;48.842;8.926;2023-02-03T07:13:11;98311.06;;;5.33;100.00
1401;BME280;46518;48.842;8.926;2023-02-03T07:15:39;98292.69;;;5.41;100.00
1401;BME280;46518;48.842;8.926;2023-02-03T07:18:07;98273.16;;;5.37;100.00
1401;BME280;46518;48.842;8.926;2023-02-03T07:20:35;98284.31;;;5.31;100.00
1401;BME280;46518;48.842;8.926;2023-02-03T07:23:03;98273.09;;;5.30;100.00
1401;BME280;46518;48.842;8.926;2023-02-03T07:25:31;98270.56;;;5.37;100.00
1401;BME280;46518;48.842;8.926;2023-02-03T07:28:01;98269.47;;;5.31;100.00
1401;BME280;46518;48.842;8.926;2023-02-03T07:30:29;98272.44;;;5.43;100.00
1401;BME280;46518;48.842;8.926;2023-02-03T07:32:57;98270.56;;;5.37;100.00
1401;BME280;46518;48.842;8.926;2023-02-03T07:35:25;98267.84;;;5.45;100.00
1401;BME280;46518;48.842;8.926;2023-02-03T07:37:54;98279.72;;;5.48;100.00
1401;BME280;46518;48.842;8.926;2023-02-03T07:40:22;98275.78;;;5.37;100.00
1401;BME280;46518;48.842;8.926;2023-02-03T07:42:50;98300.97;;;5.45;100.00
1401;BME280;46518;48.842;8.926;2023-02-03T07:45:20;98310.03;;;5.49;100.00
1401;BME280;46518;48.842;8.926;2023-02-03T07:47:50;98313.28;;;5.51;100.00
1401;BME280;46518;48.842;8.926;2023-02-03T07:50:19;98323.00;;;5.57;100.00
1401;BME280;46518;48.842;8.926;2023-02-03T07:52:49;98306.47;;;5.50;100.00
1401;BME280;46518;48.842;8.926;2023-02-03T07:55:17;98323.56;;;5.52;100.00
1401;BME280;46518;48.842;8.926;2023-02-03T07:57:45;98319.56;;;5.56;100.00
1401;BME280;46518;48.842;8.926;2023-02-03T08:00:15;98327.31;;;5.65;100.00
1401;BME280;46518;48.842;8.926;2023-02-03T08:02:45;98340.91;;;5.60;100.00
1401;BME280;46518;48.842;8.926;2023-02-03T08:05:14;98354.78;;;5.60;100.00
1401;BME280;46518;48.842;8.926;2023-02-03T08:07:43;98349.66;;;5.52;100.00
1401;BME280;46518;48.842;8.926;2023-02-03T08:10:12;98343.00;;;5.50;100.00
1401;BME280;46518;48.842;8.926;2023-02-03T08:12:42;98344.53;;;5.44;100.00
1401;BME280;46518;48.842;8.926;2023-02-03T08:15:11;98350.19;;;5.62;100.00
1401;BME280;46518;48.842;8.926;2023-02-03T08:17:39;98351.16;;;5.61;100.00
1401;BME280;46518;48.842;8.926;2023-02-03T08:20:10;98322.66;;;5.45;100.00
1401;BME280;46518;48.842;8.926;2023-02-03T08:22:38;98358.19;;;5.61;100.00
1401;BME280;46518;48.842;8.926;2023-02-03T08:25:07;98365.78;;;5.56;100.00
1401;BME280;46518;48.842;8.926;2023-02-03T08:27:36;98364.81;;;5.57;100.00
1401;BME280;46518;48.842;8.926;2023-02-03T08:30:05;98366.22;;;5.59;100.00
1401;BME280;46518;48.842;8.926;2023-02-03T08:32:34;98364.84;;;5.63;100.00
1401;BME280;46518;48.842;8.926;2023-02-03T08:35:02;98339.91;;;5.61;100.00
1401;BME280;46518;48.842;8.926;2023-02-03T08:37:32;98355.84;;;5.66;100.00
1401;BME280;46518;48.842;8.926;2023-02-03T08:40:00;98358.19;;;5.76;100.00
1401;BME280;46518;48.842;8.926;2023-02-03T08:42:29;98375.03;;;5.73;100.00
1401;BME280;46518;48.842;8.926;2023-02-03T08:44:57;98367.81;;;5.75;100.00
1401;BME280;46518;48.842;8.926;2023-02-03T08:47:26;98373.59;;;5.71;100.00
1401;BME280;46518;48.842;8.926;2023-02-03T08:49:54;98369.53;;;5.68;100.00
1401;BME280;46518;48.842;8.926;2023-02-03T08:52:22;98370.00;;;5.72;100.00
1401;BME280;46518;48.842;8.926;2023-02-03T08:54:52;98344.75;;;5.64;100.00
1401;BME280;46518;48.842;8.926;2023-02-03T08:57:20;98353.88;;;5.53;100.00
1401;BME280;46518;48.842;8.926;2023-02-03T08:59:48;98362.88;;;5.66;100.00
1401;BME280;46518;48.842;8.926;2023-02-03T09:02:18;98369.09;;;5.65;100.00
1401;BME280;46518;48.842;8.926;2023-02-03T09:04:46;98364.97;;;5.55;100.00
1401;BME280;46518;48.842;8.926;2023-02-03T09:07:16;98347.09;;;5.74;100.00
1401;BME280;46518;48.842;8.926;2023-02-03T09:09:44;98330.19;;;5.70;100.00
1401;BME280;46518;48.842;8.926;2023-02-03T09:12:13;98349.38;;;5.77;100.00
1401;BME280;46518;48.842;8.926;2023-02-03T09:14:42;98351.59;;;5.80;100.00
1401;BME280;46518;48.842;8.926;2023-02-03T09:17:10;98348.59;;;5.98;100.00
1401;BME280;46518;48.842;8.926;2023-02-03T09:19:38;98317.81;;;5.78;100.00
1401;BME280;46518;48.842;8.926;2023-02-03T09:22:06;98345.88;;;5.91;100.00
1401;BME280;46518;48.842;8.926;2023-02-03T09:24:35;98330.31;;;5.83;100.00
1401;BME280;46518;48.842;8.926;2023-02-03T09:27:03;98348.78;;;5.96;100.00
1401;BME280;46518;48.842;8.926;2023-02-03T09:29:32;98347.34;;;5.94;100.00
1401;BME280;46518;48.842;8.926;2023-02-03T09:32:01;98349.91;;;6.09;100.00
1401;BME280;46518;48.842;8.926;2023-02-03T09:34:33;98341.28;;;5.93;100.00
1401;BME280;46518;48.842;8.926;2023-02-03T09:37:01;98342.56;;;5.97;100.00
1401;BME280;46518;48.842;8.926;2023-02-03T09:39:30;98334.53;;;5.99;100.00
1401;BME280;46518;48.842;8.926;2023-02-03T09:42:27;98350.78;;;5.94;100.00
1401;BME280;46518;48.842;8.926;2023-02-03T09:45:09;98357.06;;;6.00;100.00
1401;BME280;46518;48.842;8.926;2023-02-03T09:47:42;98363.53;;;6.04;100.00
1401;BME280;46518;48.842;8.926;2023-02-03T09:50:13;98357.88;;;6.00;100.00
1401;BME280;46518;48.842;8.926;2023-02-03T09:52:46;98351.16;;;6.13;100.00
1401;BME280;46518;48.842;8.926;2023-02-03T09:55:25;98342.03;;;6.23;100.00
1401;BME280;46518;48.842;8.926;2023-02-03T09:58:01;98349.50;;;6.26;100.00
1401;BME280;46518;48.842;8.926;2023-02-03T10:00:34;98329.19;;;6.29;100.00
1401;BME280;46518;48.842;8.926;2023-02-03T10:03:06;98337.66;;;6.31;100.00
1401;BME280;46518;48.842;8.926;2023-02-03T10:05:47;98328.13;;;6.44;100.00
1401;BME280;46518;48.842;8.926;2023-02-03T10:08:23;98315.09;;;6.51;100.00
1401;BME280;46518;48.842;8.926;2023-02-03T10:11:02;98315.69;;;6.46;100.00
1401;BME280;46518;48.842;8.926;2023-02-03T10:13:45;98329.13;;;6.43;100.00
1401;BME280;46518;48.842;8.926;2023-02-03T10:16:48;98340.59;;;6.42;100.00
1401;BME280;46518;48.842;8.926;2023-02-03T10:19:22;98351.44;;;6.39;100.00
1401;BME280;46518;48.842;8.926;2023-02-03T10:21:55;98368.31;;;6.37;100.00
1401;BME280;46518;48.842;8.926;2023-02-03T10:24:27;98380.38;;;6.38;99.38
1401;BME280;46518;48.842;8.926;2023-02-03T10:27:00;98356.66;;;6.39;99.24
1401;BME280;46518;48.842;8.926;2023-02-03T10:29:31;98366.03;;;6.55;98.79
1401;BME280;46518;48.842;8.926;2023-02-03T10:32:06;98359.00;;;6.56;99.25
1401;BME280;46518;48.842;8.926;2023-02-03T10:34:35;98365.97;;;6.48;98.85
1401;BME280;46518;48.842;8.926;2023-02-03T10:37:14;98364.78;;;6.51;97.47
1401;BME280;46518;48.842;8.926;2023-02-03T10:39:46;98349.25;;;6.71;98.85
1401;BME280;46518;48.842;8.926;2023-02-03T10:42:15;98336.78;;;6.66;97.40
1401;BME280;46518;48.842;8.926;2023-02-03T10:44:46;98332.28;;;6.60;97.97
1401;BME280;46518;48.842;8.926;2023-02-03T10:47:24;98318.91;;;6.48;95.62
1401;BME280;46518;48.842;8.926;2023-02-03T10:49:55;98312.88;;;6.48;96.59
1401;BME280;46518;48.842;8.926;2023-02-03T10:52:29;98297.63;;;6.52;97.40
1401;BME280;46518;48.842;8.926;2023-02-03T10:54:58;98289.81;;;6.58;97.64
1401;BME280;46518;48.842;8.926;2023-02-03T10:57:27;98296.63;;;6.53;96.70
1401;BME280;46518;48.842;8.926;2023-02-03T11:00:19;98301.78;;;6.46;96.64
1401;BME280;46518;48.842;8.926;2023-02-03T11:02:55;98311.88;;;6.49;96.49
1401;BME280;46518;48.842;8.926;2023-02-03T11:05:24;98320.09;;;6.46;96.35
1401;BME280;46518;48.842;8.926;2023-02-03T11:07:53;98289.03;;;6.36;96.85
1401;BME280;46518;48.842;8.926;2023-02-03T11:10:27;98284.63;;;6.37;97.93
1401;BME280;46518;48.842;8.926;2023-02-03T11:13:16;98294.78;;;6.46;96.02
1401;BME280;46518;48.842;8.926;2023-02-03T11:15:53;98303.28;;;6.55;96.15
1401;BME280;46518;48.842;8.926;2023-02-03T11:18:35;98301.66;;;6.54;93.84
1401;BME280;46518;48.842;8.926;2023-02-03T11:21:09;98288.94;;;6.51;95.48
1401;BME280;46518;48.842;8.926;2023-02-03T11:23:44;98296.38;;;6.47;95.32
1401;BME280;46518;48.842;8.926;2023-02-03T11:26:17;98296.44;;;6.54;93.35
1401;BME280;46518;48.842;8.926;2023-02-03T11:28:49;98282.34;;;6.55;93.80
1401;BME280;46518;48.842;8.926;2023-02-03T11:31:21;98284.97;;;6.55;94.16
1401;BME280;46518;48.842;8.926;2023-02-03T11:33:55;98271.47;;;6.52;93.39
1401;BME280;46518;48.842;8.926;2023-02-03T11:36:26;98270.31;;;6.61;96.63
1401;BME280;46518;48.842;8.926;2023-02-03T11:39:08;98263.47;;;6.60;95.58
1401;BME280;46518;48.842;8.926;2023-02-03T11:41:37;98277.91;;;6.56;95.50
1401;BME280;46518;48.842;8.926;2023-02-03T11:44:22;98267.06;;;6.59;94.86
1401;BME280;46518;48.842;8.926;2023-02-03T11:46:54;98268.50;;;6.61;95.04
1401;BME280;46518;48.842;8.926;2023-02-03T11:49:55;98247.53;;;6.55;93.47
1401;BME280;46518;48.842;8.926;2023-02-03T11:52:43;98223.00;;;6.56;92.89
1401;BME280;46518;48.842;8.926;2023-02-03T11:55:20;98231.75;;;6.69;93.14
1401;BME280;46518;48.842;8.926;2023-02-03T12:00:52;98228.06;;;6.64;92.10
1401;BME280;46518;48.842;8.926;2023-02-03T12:03:33;98245.78;;;6.62;91.71
1401;BME280;46518;48.842;8.926;2023-02-03T12:06:22;98236.69;;;6.58;92.20
1401;BME280;46518;48.842;8.926;2023-02-03T12:09:07;98233.69;;;6.61;91.54
1401;BME280;46518;48.842;8.926;2023-02-03T12:12:04;98231.31;;;6.66;91.31
1401;BME280;46518;48.842;8.926;2023-02-03T12:14:46;98239.00;;;6.74;92.43
1401;BME280;46518;48.842;8.926;2023-02-03T12:17:30;98238.22;;;6.80;90.82
1401;BME280;46518;48.842;8.926;2023-02-03T12:20:13;98220.47;;;6.69;90.90
1401;BME280;46518;48.842;8.926;2023-02-03T12:22:52;98232.78;;;6.75;89.08
1401;BME280;46518;48.842;8.926;2023-02-03T12:25:32;98227.03;;;6.58;91.56
1401;BME280;46518;48.842;8.926;2023-02-03T12:28:11;98219.41;;;6.63;88.86
1401;BME280;46518;48.842;8.926;2023-02-03T12:31:02;98222.00;;;6.57;89.87
1401;BME280;46518;48.842;8.926;2023-02-03T12:33:34;98234.13;;;6.64;88.28
1401;BME280;46518;48.842;8.926;2023-02-03T12:36:09;98218.44;;;6.64;88.60
1401;BME280;46518;48.842;8.926;2023-02-03T12:38:42;98228.56;;;6.81;89.62
1401;BME280;46518;48.842;8.926;2023-02-03T12:41:14;98228.22;;;6.90;88.74
1401;BME280;46518;48.842;8.926;2023-02-03T12:43:45;98225.78;;;6.82;88.78
1401;BME280;46518;48.842;8.926;2023-02-03T12:46:17;98235.78;;;6.79;89.09
1401;BME280;46518;48.842;8.926;2023-02-03T12:48:50;98239.59;;;6.69;87.89
1401;BME280;46518;48.842;8.926;2023-02-03T12:51:28;98209.63;;;6.79;87.32
1401;BME280;46518;48.842;8.926;2023-02-03T12:54:07;98203.19;;;6.75;88.24
1401;BME280;46518;48.842;8.926;2023-02-03T12:56:40;98181.03;;;6.70;87.44
1401;BME280;46518;48.842;8.926;2023-02-03T12:59:12;98176.13;;;6.54;88.38
1401;BME280;46518;48.842;8.926;2023-02-03T13:01:46;98163.06;;;6.61;87.03
1401;BME280;46518;48.842;8.926;2023-02-03T13:04:24;98185.03;;;6.66;88.37
1401;BME280;46518;48.842;8.926;2023-02-03T13:07:01;98149.97;;;6.61;87.71
1401;BME280;46518;48.842;8.926;2023-02-03T13:09:37;98170.16;;;6.74;87.90
1401;BME280;46518;48.842;8.926;2023-02-03T13:12:10;98162.53;;;6.72;87.39
1401;BME280;46518;48.842;8.926;2023-02-03T13:14:43;98127.72;;;6.78;87.50
1401;BME280;46518;48.842;8.926;2023-02-03T13:17:15;98142.81;;;6.76;87.28
1401;BME280;46518;48.842;8.926;2023-02-03T13:19:47;98146.84;;;6.79;86.82
1401;BME280;46518;48.842;8.926;2023-02-03T13:22:17;98150.69;;;6.83;87.19
1401;BME280;46518;48.842;8.926;2023-02-03T13:24:55;98144.84;;;6.81;86.07
1401;BME280;46518;48.842;8.926;2023-02-03T13:27:40;98170.38;;;6.79;87.52
1401;BME280;46518;48.842;8.926;2023-02-03T13:30:20;98134.53;;;6.73;88.29
1401;BME280;46518;48.842;8.926;2023-02-03T13:33:06;98142.19;;;6.67;88.72
1401;BME280;46518;48.842;8.926;2023-02-03T13:35:49;98152.69;;;6.74;89.01
1401;BME280;46518;48.842;8.926;2023-02-03T13:38:32;98136.16;;;6.67;89.44
1401;BME280;46518;48.842;8.926;2023-02-03T13:41:08;98142.13;;;6.61;90.01
1401;BME280;46518;48.842;8.926;2023-02-03T13:43:45;98145.16;;;6.58;90.36
1401;BME280;46518;48.842;8.926;2023-02-03T13:46:22;98127.22;;;6.55;90.21
1401;BME280;46518;48.842;8.926;2023-02-03T13:48:53;98145.75;;;6.60;90.43
1401;BME280;46518;48.842;8.926;2023-02-03T13:51:24;98155.84;;;6.63;90.50